sensor_id;sensor_type;location;lat;lon;timestamp;P1;durP1;ratioP1;P2;durP2;ratioP2
9176;SDS011;4623;54.310;10.112;2022-08-21T00:01:24;5.67;;;2.40;;
9176;SDS011;4623;54.310;10.112;2022-08-21T00:03:51;4.37;;;2.33;;
9176;SDS011;4623;54.310;10.112;2022-08-21T00:06:17;5.13;;;2.57;;
9176;SDS011;4623;54.310;10.112;2022-08-21T00:08:43;3.73;;;2.50;;
9176;SDS011;4623;54.310;10.112;2022-08-21T00:11:09;3.00;;;2.10;;
9176;SDS011;4623;54.310;10.112;2022-08-21T00:13:35;3.07;;;1.93;;
9176;SDS011;4623;54.310;10.112;2022-08-21T00:16:02;3.67;;;1.97;;
9176;SDS011;4623;54.310;10.112;2022-08-21T00:18:28;3.57;;;2.37;;
9176;SDS011;4623;54.310;10.112;2022-08-21T00:20:54;3.90;;;2.07;;
9176;SDS011;4623;54.310;10.112;2022-08-21T00:23:20;3.47;;;2.27;;
9176;SDS011;4623;54.310;10.112;2022-08-21T00:25:46;4.97;;;2.30;;
9176;SDS011;4623;54.310;10.112;2022-08-21T00:28:12;3.90;;;2.33;;
9176;SDS011;4623;54.310;10.112;2022-08-21T00:30:38;3.47;;;2.27;;
9176;SDS011;4623;54.310;10.112;2022-08-21T00:33:05;3.43;;;2.33;;
9176;SDS011;4623;54.310;10.112;2022-08-21T00:35:33;5.87;;;3.07;;
9176;SDS011;4623;54.310;10.112;2022-08-21T00:38:02;3.37;;;2.50;;
9176;SDS011;4623;54.310;10.112;2022-08-21T00:40:33;6.10;;;3.10;;
9176;SDS011;4623;54.310;10.112;2022-08-21T00:43:13;3.13;;;2.10;;
9176;SDS011;4623;54.310;10.112;2022-08-21T00:45:41;3.50;;;2.17;;
9176;SDS011;4623;54.310;10.112;2022-08-21T00:48:07;4.30;;;2.13;;
9176;SDS011;4623;54.310;10.112;2022-08-21T00:50:34;5.50;;;2.87;;
9176;SDS011;4623;54.310;10.112;2022-08-21T00:53:04;5.23;;;2.50;;
9176;SDS011;4623;54.310;10.112;2022-08-21T00:55:31;5.10;;;2.40;;
9176;SDS011;4623;54.310;10.112;2022-08-21T00:57:59;3.53;;;2.13;;
9176;SDS011;4623;54.310;10.112;2022-08-21T01:00:30;3.40;;;2.27;;
9176;SDS011;4623;54.310;10.112;2022-08-21T01:02:59;3.07;;;2.27;;
9176;SDS011;4623;54.310;10.112;2022-08-21T01:05:27;4.70;;;2.57;;
9176;SDS011;4623;54.310;10.112;2022-08-21T01:07:53;5.40;;;2.80;;
9176;SDS011;4623;54.310;10.112;2022-08-21T01:10:22;5.33;;;2.50;;
9176;SDS011;4623;54.310;10.112;2022-08-21T01:12:48;2.40;;;2.07;;
9176;SDS011;4623;54.310;10.112;2022-08-21T01:15:16;2.63;;;2.03;;
9176;SDS011;4623;54.310;10.112;2022-08-21T01:17:43;5.20;;;2.23;;
9176;SDS011;4623;54.310;10.112;2022-08-21T01:20:10;6.23;;;2.67;;
9176;SDS011;4623;54.310;10.112;2022-08-21T01:22:36;3.10;;;2.10;;
9176;SDS011;4623;54.310;10.112;2022-08-21T01:25:04;2.63;;;1.90;;
9176;SDS011;4623;54.310;10.112;2022-08-21T01:27:30;3.33;;;2.40;;
9176;SDS011;4623;54.310;10.112;2022-08-21T01:29:57;6.27;;;3.10;;
9176;SDS011;4623;54.310;10.112;2022-08-21T01:32:27;3.67;;;2.43;;
9176;SDS011;4623;54.310;10.112;2022-08-21T01:34:53;6.77;;;3.20;;
9176;SDS011;4623;54.310;10.112;2022-08-21T01:37:19;5.10;;;3.00;;
9176;SDS011;4623;54.310;10.112;2022-08-21T01:39:46;6.20;;;3.10;;
9176;SDS011;4623;54.310;10.112;2022-08-21T01:42:12;2.93;;;2.23;;
9176;SDS011;4623;54.310;10.112;2022-08-21T01:44:38;5.33;;;2.63;;
9176;SDS011;4623;54.310;10.112;2022-08-21T01:47:06;4.87;;;2.27;;
9176;SDS011;4623;54.310;10.112;2022-08-21T01:49:34;3.77;;;2.23;;
9176;SDS011;4623;54.310;10.112;2022-08-21T01:52:00;3.93;;;2.23;;
9176;SDS011;4623;54.310;10.112;2022-08-21T01:54:26;4.10;;;2.40;;
9176;SDS011;4623;54.310;10.112;2022-08-21T01:56:52;5.37;;;2.43;;
9176;SDS011;4623;54.310;10.112;2022-08-21T01:59:19;5.27;;;2.90;;
9176;SDS011;4623;54.310;10.112;2022-08-21T02:01:47;6.83;;;2.90;;
9176;SDS011;4623;54.310;10.112;2022-08-21T02:04:13;5.17;;;2.60;;
9176;SDS011;4623;54.310;10.112;2022-08-21T02:06:38;5.30;;;2.73;;
9176;SDS011;4623;54.310;10.112;2022-08-21T02:09:05;9.33;;;3.03;;
9176;SDS011;4623;54.310;10.112;2022-08-21T02:11:34;3.43;;;2.60;;
9176;SDS011;4623;54.310;10.112;2022-08-21T02:14:00;5.33;;;2.60;;
9176;SDS011;4623;54.310;10.112;2022-08-21T02:16:26;3.57;;;2.57;;
9176;SDS011;4623;54.310;10.112;2022-08-21T02:18:52;5.10;;;2.47;;
9176;SDS011;4623;54.310;10.112;2022-08-21T02:21:17;3.83;;;2.63;;
9176;SDS011;4623;54.310;10.112;2022-08-21T02:23:43;4.83;;;2.83;;
9176;SDS011;4623;54.310;10.112;2022-08-21T02:26:10;3.50;;;2.30;;
9176;SDS011;4623;54.310;10.112;2022-08-21T02:28:36;3.33;;;2.37;;
9176;SDS011;4623;54.310;10.112;2022-08-21T02:31:03;2.80;;;2.17;;
9176;SDS011;4623;54.310;10.112;2022-08-21T02:33:29;2.60;;;2.40;;
9176;SDS011;4623;54.310;10.112;2022-08-21T02:35:54;2.77;;;2.10;;
9176;SDS011;4623;54.310;10.112;2022-08-21T02:38:25;3.60;;;2.20;;
9176;SDS011;4623;54.310;10.112;2022-08-21T02:40:53;2.47;;;1.90;;
9176;SDS011;4623;54.310;10.112;2022-08-21T02:43:20;3.10;;;2.53;;
9176;SDS011;4623;54.310;10.112;2022-08-21T02:45:47;4.80;;;2.23;;
9176;SDS011;4623;54.310;10.112;2022-08-21T02:48:15;2.70;;;2.10;;
9176;SDS011;4623;54.310;10.112;2022-08-21T02:50:44;4.23;;;2.00;;
9176;SDS011;4623;54.310;10.112;2022-08-21T02:53:13;2.63;;;1.70;;
9176;SDS011;4623;54.310;10.112;2022-08-21T02:55:41;4.37;;;1.97;;
9176;SDS011;4623;54.310;10.112;2022-08-21T02:58:11;5.50;;;2.37;;
9176;SDS011;4623;54.310;10.112;2022-08-21T03:00:38;2.77;;;2.00;;
9176;SDS011;4623;54.310;10.112;2022-08-21T03:03:04;4.37;;;2.50;;
9176;SDS011;4623;54.310;10.112;2022-08-21T03:05:31;3.03;;;2.30;;
9176;SDS011;4623;54.310;10.112;2022-08-21T03:07:59;4.23;;;2.40;;
9176;SDS011;4623;54.310;10.112;2022-08-21T03:10:25;4.20;;;2.10;;
9176;SDS011;4623;54.310;10.112;2022-08-21T03:12:52;3.27;;;2.40;;
9176;SDS011;4623;54.310;10.112;2022-08-21T03:15:19;3.73;;;2.40;;
9176;SDS011;4623;54.310;10.112;2022-08-21T03:17:46;2.50;;;2.30;;
9176;SDS011;4623;54.310;10.112;2022-08-21T03:20:13;4.73;;;2.83;;
9176;SDS011;4623;54.310;10.112;2022-08-21T03:22:40;6.57;;;2.90;;
9176;SDS011;4623;54.310;10.112;2022-08-21T03:25:06;2.60;;;2.30;;
9176;SDS011;4623;54.310;10.112;2022-08-21T03:27:33;3.70;;;2.17;;
9176;SDS011;4623;54.310;10.112;2022-08-21T03:29:59;7.90;;;3.00;;
9176;SDS011;4623;54.310;10.112;2022-08-21T03:32:25;3.00;;;2.10;;
9176;SDS011;4623;54.310;10.112;2022-08-21T03:34:51;3.27;;;2.97;;
9176;SDS011;4623;54.310;10.112;2022-08-21T03:37:17;4.60;;;2.27;;
9176;SDS011;4623;54.310;10.112;2022-08-21T03:39:42;2.30;;;1.80;;
9176;SDS011;4623;54.310;10.112;2022-08-21T03:42:09;4.00;;;2.03;;
9176;SDS011;4623;54.310;10.112;2022-08-21T03:44:36;5.03;;;2.10;;
9176;SDS011;4623;54.310;10.112;2022-08-21T03:47:02;3.70;;;2.63;;
9176;SDS011;4623;54.310;10.112;2022-08-21T03:49:28;5.27;;;3.13;;
9176;SDS011;4623;54.310;10.112;2022-08-21T03:51:54;3.73;;;2.03;;
9176;SDS011;4623;54.310;10.112;2022-08-21T03:54:20;3.80;;;2.60;;
9176;SDS011;4623;54.310;10.112;2022-08-21T03:56:46;2.90;;;2.60;;
9176;SDS011;4623;54.310;10.112;2022-08-21T03:59:12;4.37;;;2.63;;
9176;SDS011;4623;54.310;10.112;2022-08-21T04:01:38;6.60;;;2.90;;
9176;SDS011;4623;54.310;10.112;2022-08-21T04:04:04;3.77;;;2.57;;
9176;SDS011;4623;54.310;10.112;2022-08-21T04:06:30;5.37;;;2.80;;
9176;SDS011;4623;54.310;10.112;2022-08-21T04:08:58;4.57;;;2.60;;
9176;SDS011;4623;54.310;10.112;2022-08-21T04:11:23;4.73;;;2.70;;
9176;SDS011;4623;54.310;10.112;2022-08-21T04:13:49;6.10;;;2.87;;
9176;SDS011;4623;54.310;10.112;2022-08-21T04:16:15;4.17;;;2.63;;
9176;SDS011;4623;54.310;10.112;2022-08-21T04:18:40;5.10;;;2.97;;
9176;SDS011;4623;54.310;10.112;2022-08-21T04:21:07;4.23;;;2.40;;
9176;SDS011;4623;54.310;10.112;2022-08-21T04:23:35;2.77;;;2.30;;
9176;SDS011;4623;54.310;10.112;2022-08-21T04:26:01;2.90;;;2.10;;
9176;SDS011;4623;54.310;10.112;2022-08-21T04:28:27;3.23;;;2.40;;
9176;SDS011;4623;54.310;10.112;2022-08-21T04:30:54;2.60;;;1.80;;
9176;SDS011;4623;54.310;10.112;2022-08-21T04:33:20;5.63;;;2.57;;
9176;SDS011;4623;54.310;10.112;2022-08-21T04:35:47;4.87;;;2.50;;
9176;SDS011;4623;54.310;10.112;2022-08-21T04:38:13;5.67;;;2.47;;
9176;SDS011;4623;54.310;10.112;2022-08-21T04:40:39;3.13;;;2.37;;
9176;SDS011;4623;54.310;10.112;2022-08-21T04:43:05;3.57;;;2.33;;
9176;SDS011;4623;54.310;10.112;2022-08-21T04:45:35;2.63;;;2.40;;
9176;SDS011;4623;54.310;10.112;2022-08-21T04:48:03;4.20;;;2.60;;
9176;SDS011;4623;54.310;10.112;2022-08-21T04:50:36;4.53;;;2.63;;
9176;SDS011;4623;54.310;10.112;2022-08-21T04:56:08;7.10;;;5.77;;
9176;SDS011;4623;54.310;10.112;2022-08-21T04:58:37;5.60;;;5.13;;
9176;SDS011;4623;54.310;10.112;2022-08-21T05:01:05;5.17;;;3.13;;
9176;SDS011;4623;54.310;10.112;2022-08-21T05:03:34;6.07;;;3.37;;
9176;SDS011;4623;54.310;10.112;2022-08-21T05:06:05;3.20;;;2.77;;
9176;SDS011;4623;54.310;10.112;2022-08-21T05:08:33;6.00;;;2.90;;
9176;SDS011;4623;54.310;10.112;2022-08-21T05:10:59;4.63;;;2.90;;
9176;SDS011;4623;54.310;10.112;2022-08-21T05:13:25;5.40;;;2.93;;
9176;SDS011;4623;54.310;10.112;2022-08-21T05:15:51;6.83;;;3.37;;
9176;SDS011;4623;54.310;10.112;2022-08-21T05:18:17;3.83;;;2.80;;
9176;SDS011;4623;54.310;10.112;2022-08-21T05:20:42;3.20;;;2.53;;
9176;SDS011;4623;54.310;10.112;2022-08-21T05:23:10;5.73;;;2.67;;
9176;SDS011;4623;54.310;10.112;2022-08-21T05:25:37;4.80;;;3.00;;
9176;SDS011;4623;54.310;10.112;2022-08-21T05:28:04;4.90;;;2.50;;
9176;SDS011;4623;54.310;10.112;2022-08-21T05:30:30;5.97;;;3.97;;
9176;SDS011;4623;54.310;10.112;2022-08-21T05:32:59;5.57;;;2.90;;
9176;SDS011;4623;54.310;10.112;2022-08-21T05:35:27;3.93;;;3.10;;
9176;SDS011;4623;54.310;10.112;2022-08-21T05:37:53;3.13;;;2.80;;
9176;SDS011;4623;54.310;10.112;2022-08-21T05:40:18;3.97;;;2.63;;
9176;SDS011;4623;54.310;10.112;2022-08-21T05:42:44;5.90;;;2.83;;
9176;SDS011;4623;54.310;10.112;2022-08-21T05:45:11;3.03;;;2.60;;
9176;SDS011;4623;54.310;10.112;2022-08-21T05:47:36;3.63;;;2.63;;
9176;SDS011;4623;54.310;10.112;2022-08-21T05:50:03;6.33;;;3.33;;
9176;SDS011;4623;54.310;10.112;2022-08-21T05:52:29;3.93;;;2.93;;
9176;SDS011;4623;54.310;10.112;2022-08-21T05:54:55;3.17;;;2.70;;
9176;SDS011;4623;54.310;10.112;2022-08-21T05:57:21;6.83;;;2.63;;
9176;SDS011;4623;54.310;10.112;2022-08-21T05:59:48;4.90;;;2.77;;
9176;SDS011;4623;54.310;10.112;2022-08-21T06:02:16;3.43;;;2.90;;
9176;SDS011;4623;54.310;10.112;2022-08-21T06:04:43;7.73;;;3.30;;
9176;SDS011;4623;54.310;10.112;2022-08-21T06:07:08;4.90;;;3.10;;
9176;SDS011;4623;54.310;10.112;2022-08-21T06:09:34;5.40;;;3.37;;
9176;SDS011;4623;54.310;10.112;2022-08-21T06:12:10;7.03;;;2.77;;
9176;SDS011;4623;54.310;10.112;2022-08-21T06:14:37;5.80;;;3.13;;
9176;SDS011;4623;54.310;10.112;2022-08-21T06:17:10;5.03;;;3.03;;
9176;SDS011;4623;54.310;10.112;2022-08-21T06:19:36;4.57;;;3.20;;
9176;SDS011;4623;54.310;10.112;2022-08-21T06:22:03;4.90;;;3.10;;
9176;SDS011;4623;54.310;10.112;2022-08-21T06:24:29;3.93;;;2.73;;
9176;SDS011;4623;54.310;10.112;2022-08-21T06:26:55;6.53;;;3.03;;
9176;SDS011;4623;54.310;10.112;2022-08-21T06:29:21;4.33;;;3.03;;
9176;SDS011;4623;54.310;10.112;2022-08-21T06:31:48;5.13;;;2.77;;
9176;SDS011;4623;54.310;10.112;2022-08-21T06:34:16;4.90;;;2.70;;
9176;SDS011;4623;54.310;10.112;2022-08-21T06:36:43;8.10;;;3.10;;
9176;SDS011;4623;54.310;10.112;2022-08-21T06:39:09;6.40;;;2.73;;
9176;SDS011;4623;54.310;10.112;2022-08-21T06:41:34;7.60;;;3.47;;
9176;SDS011;4623;54.310;10.112;2022-08-21T06:44:00;6.67;;;3.03;;
9176;SDS011;4623;54.310;10.112;2022-08-21T06:46:27;4.60;;;2.80;;
9176;SDS011;4623;54.310;10.112;2022-08-21T06:48:54;3.77;;;2.37;;
9176;SDS011;4623;54.310;10.112;2022-08-21T06:51:20;4.47;;;2.47;;
9176;SDS011;4623;54.310;10.112;2022-08-21T06:53:46;12.80;;;2.80;;
9176;SDS011;4623;54.310;10.112;2022-08-21T06:56:12;4.63;;;2.73;;
9176;SDS011;4623;54.310;10.112;2022-08-21T06:58:37;5.30;;;2.33;;
9176;SDS011;4623;54.310;10.112;2022-08-21T07:01:03;4.87;;;2.40;;
9176;SDS011;4623;54.310;10.112;2022-08-21T07:03:31;4.00;;;2.27;;
9176;SDS011;4623;54.310;10.112;2022-08-21T07:05:59;4.57;;;2.30;;
9176;SDS011;4623;54.310;10.112;2022-08-21T07:08:26;4.32;;;3.13;;
9176;SDS011;4623;54.310;10.112;2022-08-21T07:10:53;5.80;;;2.10;;
9176;SDS011;4623;54.310;10.112;2022-08-21T07:13:21;4.03;;;2.47;;
9176;SDS011;4623;54.310;10.112;2022-08-21T07:15:47;7.00;;;2.57;;
9176;SDS011;4623;54.310;10.112;2022-08-21T07:18:13;6.03;;;2.45;;
9176;SDS011;4623;54.310;10.112;2022-08-21T07:20:39;3.67;;;2.40;;
9176;SDS011;4623;54.310;10.112;2022-08-21T07:23:06;5.90;;;2.20;;
9176;SDS011;4623;54.310;10.112;2022-08-21T07:25:35;5.30;;;2.13;;
9176;SDS011;4623;54.310;10.112;2022-08-21T07:28:01;5.40;;;2.05;;
9176;SDS011;4623;54.310;10.112;2022-08-21T07:30:27;2.83;;;1.80;;
9176;SDS011;4623;54.310;10.112;2022-08-21T07:32:53;3.72;;;2.33;;
9176;SDS011;4623;54.310;10.112;2022-08-21T07:35:19;4.22;;;2.38;;
9176;SDS011;4623;54.310;10.112;2022-08-21T07:37:46;4.32;;;1.80;;
9176;SDS011;4623;54.310;10.112;2022-08-21T07:40:12;4.60;;;2.13;;
9176;SDS011;4623;54.310;10.112;2022-08-21T07:42:42;3.10;;;1.80;;
9176;SDS011;4623;54.310;10.112;2022-08-21T07:45:09;2.53;;;1.60;;
9176;SDS011;4623;54.310;10.112;2022-08-21T07:47:35;3.13;;;1.92;;
9176;SDS011;4623;54.310;10.112;2022-08-21T07:50:01;5.70;;;2.08;;
9176;SDS011;4623;54.310;10.112;2022-08-21T07:52:26;3.13;;;1.80;;
9176;SDS011;4623;54.310;10.112;2022-08-21T07:54:52;4.25;;;2.30;;
9176;SDS011;4623;54.310;10.112;2022-08-21T07:57:18;5.22;;;2.00;;
9176;SDS011;4623;54.310;10.112;2022-08-21T07:59:44;3.95;;;1.80;;
9176;SDS011;4623;54.310;10.112;2022-08-21T08:02:09;2.05;;;1.70;;
9176;SDS011;4623;54.310;10.112;2022-08-21T08:04:35;2.40;;;1.70;;
9176;SDS011;4623;54.310;10.112;2022-08-21T08:07:01;6.30;;;2.22;;
9176;SDS011;4623;54.310;10.112;2022-08-21T08:09:26;5.43;;;2.20;;
9176;SDS011;4623;54.310;10.112;2022-08-21T08:11:52;4.22;;;1.95;;
9176;SDS011;4623;54.310;10.112;2022-08-21T08:14:17;5.40;;;2.42;;
9176;SDS011;4623;54.310;10.112;2022-08-21T08:16:43;2.75;;;1.80;;
9176;SDS011;4623;54.310;10.112;2022-08-21T08:19:09;3.10;;;2.03;;
9176;SDS011;4623;54.310;10.112;2022-08-21T08:21:34;2.92;;;1.88;;
9176;SDS011;4623;54.310;10.112;2022-08-21T08:24:02;2.70;;;1.90;;
9176;SDS011;4623;54.310;10.112;2022-08-21T08:26:28;3.53;;;2.20;;
9176;SDS011;4623;54.310;10.112;2022-08-21T08:28:53;3.65;;;2.33;;
9176;SDS011;4623;54.310;10.112;2022-08-21T08:31:19;5.07;;;2.03;;
9176;SDS011;4623;54.310;10.112;2022-08-21T08:33:45;6.00;;;2.33;;
9176;SDS011;4623;54.310;10.112;2022-08-21T08:36:14;2.13;;;1.92;;
9176;SDS011;4623;54.310;10.112;2022-08-21T08:38:42;4.18;;;1.90;;
9176;SDS011;4623;54.310;10.112;2022-08-21T08:41:12;4.00;;;1.95;;
9176;SDS011;4623;54.310;10.112;2022-08-21T08:43:50;3.40;;;1.92;;
9176;SDS011;4623;54.310;10.112;2022-08-21T08:46:19;4.32;;;2.53;;
9176;SDS011;4623;54.310;10.112;2022-08-21T08:49:06;4.25;;;2.20;;
9176;SDS011;4623;54.310;10.112;2022-08-21T08:52:00;4.50;;;1.95;;
9176;SDS011;4623;54.310;10.112;2022-08-21T08:54:32;3.33;;;1.92;;
9176;SDS011;4623;54.310;10.112;2022-08-21T08:57:06;5.35;;;2.10;;
9176;SDS011;4623;54.310;10.112;2022-08-21T08:59:38;3.75;;;1.90;;
9176;SDS011;4623;54.310;10.112;2022-08-21T09:02:13;3.85;;;2.15;;
9176;SDS011;4623;54.310;10.112;2022-08-21T09:04:40;3.83;;;2.13;;
9176;SDS011;4623;54.310;10.112;2022-08-21T09:07:19;3.45;;;2.20;;
9176;SDS011;4623;54.310;10.112;2022-08-21T09:10:13;4.20;;;2.08;;
9176;SDS011;4623;54.310;10.112;2022-08-21T09:15:33;3.53;;;1.70;;
9176;SDS011;4623;54.310;10.112;2022-08-21T09:18:10;3.85;;;2.05;;
9176;SDS011;4623;54.310;10.112;2022-08-21T09:27:01;4.38;;;2.38;;
9176;SDS011;4623;54.310;10.112;2022-08-21T09:29:43;3.53;;;1.90;;
9176;SDS011;4623;54.310;10.112;2022-08-21T09:37:29;5.78;;;2.22;;
9176;SDS011;4623;54.310;10.112;2022-08-21T09:39:57;4.68;;;2.42;;
9176;SDS011;4623;54.310;10.112;2022-08-21T09:42:24;6.45;;;2.60;;
9176;SDS011;4623;54.310;10.112;2022-08-21T09:45:12;4.03;;;2.33;;
9176;SDS011;4623;54.310;10.112;2022-08-21T09:47:42;3.15;;;2.00;;
9176;SDS011;4623;54.310;10.112;2022-08-21T09:50:15;5.55;;;2.75;;
9176;SDS011;4623;54.310;10.112;2022-08-21T09:52:50;4.72;;;2.10;;
9176;SDS011;4623;54.310;10.112;2022-08-21T09:55:31;4.28;;;2.20;;
9176;SDS011;4623;54.310;10.112;2022-08-21T09:58:29;6.82;;;2.08;;
9176;SDS011;4623;54.310;10.112;2022-08-21T10:00:57;4.30;;;2.10;;
9176;SDS011;4623;54.310;10.112;2022-08-21T10:03:25;5.63;;;3.05;;
9176;SDS011;4623;54.310;10.112;2022-08-21T10:05:53;6.80;;;2.50;;
9176;SDS011;4623;54.310;10.112;2022-08-21T10:08:30;5.07;;;2.13;;
9176;SDS011;4623;54.310;10.112;2022-08-21T10:19:16;5.38;;;2.70;;
9176;SDS011;4623;54.310;10.112;2022-08-21T10:22:10;6.18;;;2.80;;
9176;SDS011;4623;54.310;10.112;2022-08-21T10:27:32;4.13;;;2.40;;
9176;SDS011;4623;54.310;10.112;2022-08-21T10:30:19;3.78;;;2.40;;
9176;SDS011;4623;54.310;10.112;2022-08-21T10:32:58;3.25;;;2.05;;
9176;SDS011;4623;54.310;10.112;2022-08-21T10:35:51;3.83;;;1.98;;
9176;SDS011;4623;54.310;10.112;2022-08-21T10:47:02;4.55;;;2.20;;
9176;SDS011;4623;54.310;10.112;2022-08-21T10:54:56;3.50;;;2.55;;
9176;SDS011;4623;54.310;10.112;2022-08-21T10:57:34;3.40;;;1.80;;
9176;SDS011;4623;54.310;10.112;2022-08-21T11:00:21;2.42;;;1.83;;
9176;SDS011;4623;54.310;10.112;2022-08-21T11:02:53;3.80;;;1.92;;
9176;SDS011;4623;54.310;10.112;2022-08-21T11:05:27;3.42;;;2.40;;
9176;SDS011;4623;54.310;10.112;2022-08-21T11:08:15;3.20;;;2.22;;
9176;SDS011;4623;54.310;10.112;2022-08-21T11:10:59;1.90;;;1.60;;
9176;SDS011;4623;54.310;10.112;2022-08-21T11:19:09;2.53;;;1.80;;
9176;SDS011;4623;54.310;10.112;2022-08-21T11:21:41;2.42;;;2.08;;
9176;SDS011;4623;54.310;10.112;2022-08-21T11:26:49;1.58;;;1.17;;
9176;SDS011;4623;54.310;10.112;2022-08-21T11:29:37;4.03;;;1.88;;
9176;SDS011;4623;54.310;10.112;2022-08-21T11:40:36;2.85;;;1.58;;
9176;SDS011;4623;54.310;10.112;2022-08-21T11:46:09;2.35;;;1.42;;
9176;SDS011;4623;54.310;10.112;2022-08-21T11:51:47;1.20;;;1.10;;
9176;SDS011;4623;54.310;10.112;2022-08-21T11:54:28;1.30;;;1.20;;
9176;SDS011;4623;54.310;10.112;2022-08-21T12:00:00;1.60;;;1.20;;
9176;SDS011;4623;54.310;10.112;2022-08-21T12:02:32;4.30;;;1.70;;
9176;SDS011;4623;54.310;10.112;2022-08-21T12:05:05;3.25;;;1.65;;
9176;SDS011;4623;54.310;10.112;2022-08-21T12:10:09;1.25;;;1.13;;
9176;SDS011;4623;54.310;10.112;2022-08-21T12:12:41;1.55;;;1.42;;
9176;SDS011;4623;54.310;10.112;2022-08-21T12:23:24;1.45;;;1.13;;
9176;SDS011;4623;54.310;10.112;2022-08-21T12:29:02;1.33;;;1.20;;
9176;SDS011;4623;54.310;10.112;2022-08-21T12:31:52;1.35;;;1.25;;
9176;SDS011;4623;54.310;10.112;2022-08-21T12:34:20;1.30;;;1.20;;
9176;SDS011;4623;54.310;10.112;2022-08-21T12:36:53;1.58;;;1.10;;
9176;SDS011;4623;54.310;10.112;2022-08-21T12:39:24;1.38;;;1.27;;
9176;SDS011;4623;54.310;10.112;2022-08-21T12:44:54;1.83;;;0.98;;
9176;SDS011;4623;54.310;10.112;2022-08-21T12:49:57;2.45;;;1.40;;
9176;SDS011;4623;54.310;10.112;2022-08-21T12:52:38;1.10;;;1.00;;
9176;SDS011;4623;54.310;10.112;2022-08-21T12:55:12;1.05;;;0.95;;
9176;SDS011;4623;54.310;10.112;2022-08-21T12:57:43;1.55;;;1.17;;
9176;SDS011;4623;54.310;10.112;2022-08-21T13:00:10;1.55;;;1.08;;
9176;SDS011;4623;54.310;10.112;2022-08-21T13:02:42;1.83;;;1.20;;
9176;SDS011;4623;54.310;10.112;2022-08-21T13:05:14;1.13;;;1.02;;
9176;SDS011;4623;54.310;10.112;2022-08-21T13:07:46;1.27;;;1.10;;
9176;SDS011;4623;54.310;10.112;2022-08-21T13:10:23;1.75;;;1.35;;
9176;SDS011;4623;54.310;10.112;2022-08-21T13:12:53;1.08;;;0.98;;
9176;SDS011;4623;54.310;10.112;2022-08-21T13:15:25;1.70;;;1.00;;
9176;SDS011;4623;54.310;10.112;2022-08-21T13:17:53;1.10;;;1.00;;
9176;SDS011;4623;54.310;10.112;2022-08-21T13:20:20;2.15;;;1.30;;
9176;SDS011;4623;54.310;10.112;2022-08-21T13:22:48;2.00;;;1.23;;
9176;SDS011;4623;54.310;10.112;2022-08-21T13:25:15;1.30;;;1.20;;
9176;SDS011;4623;54.310;10.112;2022-08-21T13:27:43;1.20;;;1.10;;
9176;SDS011;4623;54.310;10.112;2022-08-21T13:30:22;1.67;;;1.20;;
9176;SDS011;4623;54.310;10.112;2022-08-21T13:32:50;3.08;;;1.17;;
9176;SDS011;4623;54.310;10.112;2022-08-21T13:35:21;1.20;;;1.10;;
9176;SDS011;4623;54.310;10.112;2022-08-21T13:37:50;1.67;;;1.10;;
9176;SDS011;4623;54.310;10.112;2022-08-21T13:40:32;2.42;;;1.30;;
9176;SDS011;4623;54.310;10.112;2022-08-21T13:43:17;2.13;;;1.30;;
9176;SDS011;4623;54.310;10.112;2022-08-21T13:45:49;1.27;;;1.10;;
9176;SDS011;4623;54.310;10.112;2022-08-21T13:48:19;1.83;;;1.20;;
9176;SDS011;4623;54.310;10.112;2022-08-21T13:50:46;1.45;;;1.17;;
9176;SDS011;4623;54.310;10.112;2022-08-21T13:53:20;1.10;;;0.93;;
9176;SDS011;4623;54.310;10.112;2022-08-21T13:55:56;1.20;;;0.95;;
9176;SDS011;4623;54.310;10.112;2022-08-21T13:58:24;2.50;;;1.10;;
9176;SDS011;4623;54.310;10.112;2022-08-21T14:00:51;1.70;;;1.17;;
9176;SDS011;4623;54.310;10.112;2022-08-21T14:05:59;2.80;;;1.20;;
9176;SDS011;4623;54.310;10.112;2022-08-21T14:08:35;1.08;;;0.98;;
9176;SDS011;4623;54.310;10.112;2022-08-21T14:11:06;1.88;;;1.20;;
9176;SDS011;4623;54.310;10.112;2022-08-21T14:13:43;5.35;;;1.52;;
9176;SDS011;4623;54.310;10.112;2022-08-21T14:16:18;1.65;;;1.20;;
9176;SDS011;4623;54.310;10.112;2022-08-21T14:19:07;2.45;;;1.30;;
9176;SDS011;4623;54.310;10.112;2022-08-21T14:21:37;2.10;;;1.55;;
9176;SDS011;4623;54.310;10.112;2022-08-21T14:24:07;3.92;;;1.50;;
9176;SDS011;4623;54.310;10.112;2022-08-21T14:26:49;3.20;;;1.42;;
9176;SDS011;4623;54.310;10.112;2022-08-21T14:29:18;1.83;;;1.60;;
9176;SDS011;4623;54.310;10.112;2022-08-21T14:31:56;1.83;;;1.25;;
9176;SDS011;4623;54.310;10.112;2022-08-21T14:34:24;2.10;;;1.33;;
9176;SDS011;4623;54.310;10.112;2022-08-21T14:36:55;1.20;;;1.10;;
9176;SDS011;4623;54.310;10.112;2022-08-21T14:39:21;3.80;;;1.85;;
9176;SDS011;4623;54.310;10.112;2022-08-21T14:41:47;2.65;;;1.63;;
9176;SDS011;4623;54.310;10.112;2022-08-21T14:44:14;2.25;;;1.00;;
9176;SDS011;4623;54.310;10.112;2022-08-21T14:46:41;1.35;;;1.25;;
9176;SDS011;4623;54.310;10.112;2022-08-21T14:49:07;2.33;;;1.23;;
9176;SDS011;4623;54.310;10.112;2022-08-21T14:51:33;2.00;;;1.48;;
9176;SDS011;4623;54.310;10.112;2022-08-21T14:53:58;2.63;;;1.33;;
9176;SDS011;4623;54.310;10.112;2022-08-21T14:56:24;7.65;;;1.60;;
9176;SDS011;4623;54.310;10.112;2022-08-21T14:58:50;2.72;;;1.30;;
9176;SDS011;4623;54.310;10.112;2022-08-21T15:01:18;2.67;;;1.23;;
9176;SDS011;4623;54.310;10.112;2022-08-21T15:03:46;4.38;;;1.70;;
9176;SDS011;4623;54.310;10.112;2022-08-21T15:06:14;2.53;;;1.63;;
9176;SDS011;4623;54.310;10.112;2022-08-21T15:08:40;3.97;;;1.40;;
9176;SDS011;4623;54.310;10.112;2022-08-21T15:11:06;2.47;;;1.45;;
9176;SDS011;4623;54.310;10.112;2022-08-21T15:13:33;2.42;;;1.42;;
9176;SDS011;4623;54.310;10.112;2022-08-21T15:16:00;3.22;;;1.77;;
9176;SDS011;4623;54.310;10.112;2022-08-21T15:18:27;3.72;;;1.40;;
9176;SDS011;4623;54.310;10.112;2022-08-21T15:20:54;4.55;;;1.90;;
9176;SDS011;4623;54.310;10.112;2022-08-21T15:23:19;2.40;;;1.25;;
9176;SDS011;4623;54.310;10.112;2022-08-21T15:25:46;3.53;;;1.50;;
9176;SDS011;4623;54.310;10.112;2022-08-21T15:28:13;1.52;;;1.30;;
9176;SDS011;4623;54.310;10.112;2022-08-21T15:30:41;5.40;;;1.60;;
9176;SDS011;4623;54.310;10.112;2022-08-21T15:33:08;1.58;;;1.05;;
9176;SDS011;4623;54.310;10.112;2022-08-21T15:35:34;1.85;;;1.30;;
9176;SDS011;4623;54.310;10.112;2022-08-21T15:38:00;4.07;;;1.92;;
9176;SDS011;4623;54.310;10.112;2022-08-21T15:40:26;3.25;;;1.50;;
9176;SDS011;4623;54.310;10.112;2022-08-21T15:42:55;3.80;;;1.67;;
9176;SDS011;4623;54.310;10.112;2022-08-21T15:45:23;1.30;;;1.15;;
9176;SDS011;4623;54.310;10.112;2022-08-21T15:47:49;2.83;;;1.33;;
9176;SDS011;4623;54.310;10.112;2022-08-21T15:50:15;2.75;;;1.45;;
9176;SDS011;4623;54.310;10.112;2022-08-21T15:52:41;2.33;;;1.65;;
9176;SDS011;4623;54.310;10.112;2022-08-21T15:55:07;4.40;;;1.85;;
9176;SDS011;4623;54.310;10.112;2022-08-21T15:57:35;3.50;;;1.67;;
9176;SDS011;4623;54.310;10.112;2022-08-21T16:00:12;2.40;;;1.50;;
9176;SDS011;4623;54.310;10.112;2022-08-21T16:02:44;5.47;;;2.03;;
9176;SDS011;4623;54.310;10.112;2022-08-21T16:05:12;2.70;;;1.50;;
9176;SDS011;4623;54.310;10.112;2022-08-21T16:07:41;2.35;;;1.48;;
9176;SDS011;4623;54.310;10.112;2022-08-21T16:10:08;4.55;;;1.98;;
9176;SDS011;4623;54.310;10.112;2022-08-21T16:12:35;3.72;;;1.90;;
9176;SDS011;4623;54.310;10.112;2022-08-21T16:15:04;4.03;;;1.73;;
9176;SDS011;4623;54.310;10.112;2022-08-21T16:17:33;2.92;;;1.65;;
9176;SDS011;4623;54.310;10.112;2022-08-21T16:20:02;4.03;;;2.05;;
9176;SDS011;4623;54.310;10.112;2022-08-21T16:22:30;4.93;;;2.25;;
9176;SDS011;4623;54.310;10.112;2022-08-21T16:24:56;3.90;;;2.05;;
9176;SDS011;4623;54.310;10.112;2022-08-21T16:27:22;4.07;;;1.80;;
9176;SDS011;4623;54.310;10.112;2022-08-21T16:29:47;4.05;;;2.03;;
9176;SDS011;4623;54.310;10.112;2022-08-21T16:32:14;3.53;;;1.90;;
9176;SDS011;4623;54.310;10.112;2022-08-21T16:34:45;3.60;;;1.67;;
9176;SDS011;4623;54.310;10.112;2022-08-21T16:37:13;4.40;;;1.80;;
9176;SDS011;4623;54.310;10.112;2022-08-21T16:39:40;3.30;;;1.52;;
9176;SDS011;4623;54.310;10.112;2022-08-21T16:42:06;3.20;;;2.00;;